Terminal Aerodrome Forecast
Issued by NWS

Home | Current Version | Previous Version | Text Only | Print | Product List | Glossary Off
Versions: 1 2 3 4 5 6 7 8 9 10 11 12 13 14 15 16 17 18

000
FTUS43 KIWX 251700
TAFSBN
TAF
KSBN 251724Z 2518/2618 24012KT P6SM OVC025
      TEMPO 2518/2520 P6SM BKN015 OVC025
     FM260000 23005KT P6SM SCT025=

USA.gov is the U.S. government's official web portal to all federal, state and local government web resources and services.